sensor_id;sensor_type;location;lat;lon;timestamp;temperature;humidity
35445;DHT22;21562;49.476;6.086;2023-08-07T05:47:38;12.00;99.90
35445;DHT22;21562;49.476;6.086;2023-08-07T05:50:04;12.20;99.90
35445;DHT22;21562;49.476;6.086;2023-08-07T05:52:30;12.70;99.90
35445;DHT22;21562;49.476;6.086;2023-08-07T05:54:56;13.00;99.90
35445;DHT22;21562;49.476;6.086;2023-08-07T05:57:22;13.20;99.90
35445;DHT22;21562;49.476;6.086;2023-08-07T05:59:47;13.20;99.90
35445;DHT22;21562;49.476;6.086;2023-08-07T06:02:13;13.30;99.90
35445;DHT22;21562;49.476;6.086;2023-08-07T06:04:39;13.20;99.90
35445;DHT22;21562;49.476;6.086;2023-08-07T06:07:06;13.30;99.90
35445;DHT22;21562;49.476;6.086;2023-08-07T06:09:32;13.20;99.90
35445;DHT22;21562;49.476;6.086;2023-08-07T06:11:58;13.30;99.90
35445;DHT22;21562;49.476;6.086;2023-08-07T06:14:24;13.30;99.90
35445;DHT22;21562;49.476;6.086;2023-08-07T06:16:51;13.50;99.90
35445;DHT22;21562;49.476;6.086;2023-08-07T06:19:16;13.60;99.90
35445;DHT22;21562;49.476;6.086;2023-08-07T06:21:43;13.60;99.90
35445;DHT22;21562;49.476;6.086;2023-08-07T06:24:08;14.50;99.90
35445;DHT22;21562;49.476;6.086;2023-08-07T06:26:34;16.00;99.90
35445;DHT22;21562;49.476;6.086;2023-08-07T06:29:00;15.60;99.90
35445;DHT22;21562;49.476;6.086;2023-08-07T06:31:25;16.40;99.90
35445;DHT22;21562;49.476;6.086;2023-08-07T06:33:51;16.20;99.90
35445;DHT22;21562;49.476;6.086;2023-08-07T06:36:16;15.20;99.90
35445;DHT22;21562;49.476;6.086;2023-08-07T06:38:42;14.70;99.90
35445;DHT22;21562;49.476;6.086;2023-08-07T06:41:08;14.50;99.90
35445;DHT22;21562;49.476;6.086;2023-08-07T06:43:33;14.30;99.90
35445;DHT22;21562;49.476;6.086;2023-08-07T06:45:59;14.20;99.90
35445;DHT22;21562;49.476;6.086;2023-08-07T06:48:24;14.40;99.90
35445;DHT22;21562;49.476;6.086;2023-08-07T06:50:51;14.40;99.90
35445;DHT22;21562;49.476;6.086;2023-08-07T06:53:17;15.10;99.90
35445;DHT22;21562;49.476;6.086;2023-08-07T06:55:43;15.00;99.90
35445;DHT22;21562;49.476;6.086;2023-08-07T06:58:09;15.30;99.90
35445;DHT22;21562;49.476;6.086;2023-08-07T07:00:36;15.20;99.90
35445;DHT22;21562;49.476;6.086;2023-08-07T07:03:02;15.20;99.90
35445;DHT22;21562;49.476;6.086;2023-08-07T07:05:28;15.60;99.90
35445;DHT22;21562;49.476;6.086;2023-08-07T07:07:55;15.30;99.90
35445;DHT22;21562;49.476;6.086;2023-08-07T07:10:21;15.80;99.90
35445;DHT22;21562;49.476;6.086;2023-08-07T07:12:47;15.70;99.90
35445;DHT22;21562;49.476;6.086;2023-08-07T07:15:13;15.40;99.90
35445;DHT22;21562;49.476;6.086;2023-08-07T07:17:38;15.70;99.90
35445;DHT22;21562;49.476;6.086;2023-08-07T07:20:04;16.10;99.90
35445;DHT22;21562;49.476;6.086;2023-08-07T07:22:30;15.90;99.90
35445;DHT22;21562;49.476;6.086;2023-08-07T07:24:56;15.70;99.90
35445;DHT22;21562;49.476;6.086;2023-08-07T07:27:21;15.60;99.90
35445;DHT22;21562;49.476;6.086;2023-08-07T07:29:51;15.50;99.90
35445;DHT22;21562;49.476;6.086;2023-08-07T07:32:17;15.80;99.90
35445;DHT22;21562;49.476;6.086;2023-08-07T07:34:43;15.70;99.90
35445;DHT22;21562;49.476;6.086;2023-08-07T07:37:08;16.00;99.90
35445;DHT22;21562;49.476;6.086;2023-08-07T07:39:35;16.00;99.90
35445;DHT22;21562;49.476;6.086;2023-08-07T07:42:00;15.50;99.90
35445;DHT22;21562;49.476;6.086;2023-08-07T07:44:26;15.60;99.90
35445;DHT22;21562;49.476;6.086;2023-08-07T07:46:52;15.70;99.90
35445;DHT22;21562;49.476;6.086;2023-08-07T07:49:18;15.10;99.90
35445;DHT22;21562;49.476;6.086;2023-08-07T07:51:43;15.30;99.90
35445;DHT22;21562;49.476;6.086;2023-08-07T07:54:10;15.20;99.90
35445;DHT22;21562;49.476;6.086;2023-08-07T07:56:36;15.20;99.90
35445;DHT22;21562;49.476;6.086;2023-08-07T07:59:01;15.30;99.90
35445;DHT22;21562;49.476;6.086;2023-08-07T08:01:28;15.60;99.90
35445;DHT22;21562;49.476;6.086;2023-08-07T08:03:53;15.90;99.90
35445;DHT22;21562;49.476;6.086;2023-08-07T08:06:19;15.60;99.90
35445;DHT22;21562;49.476;6.086;2023-08-07T08:08:45;15.20;99.90
35445;DHT22;21562;49.476;6.086;2023-08-07T08:11:10;14.90;99.90
35445;DHT22;21562;49.476;6.086;2023-08-07T08:13:36;15.20;99.90
35445;DHT22;21562;49.476;6.086;2023-08-07T08:16:04;15.40;99.90
35445;DHT22;21562;49.476;6.086;2023-08-07T08:18:30;15.60;99.90
35445;DHT22;21562;49.476;6.086;2023-08-07T08:20:56;15.40;99.90
35445;DHT22;21562;49.476;6.086;2023-08-07T08:23:22;15.20;99.90
35445;DHT22;21562;49.476;6.086;2023-08-07T08:25:48;15.10;99.90
35445;DHT22;21562;49.476;6.086;2023-08-07T08:28:14;15.50;99.90
35445;DHT22;21562;49.476;6.086;2023-08-07T08:30:41;15.50;99.90
35445;DHT22;21562;49.476;6.086;2023-08-07T08:33:07;15.50;99.90
35445;DHT22;21562;49.476;6.086;2023-08-07T08:35:34;15.80;99.90
35445;DHT22;21562;49.476;6.086;2023-08-07T08:38:00;16.00;99.90
35445;DHT22;21562;49.476;6.086;2023-08-07T08:40:26;15.90;99.90
35445;DHT22;21562;49.476;6.086;2023-08-07T08:42:53;15.90;99.90
35445;DHT22;21562;49.476;6.086;2023-08-07T08:45:23;15.80;99.90
35445;DHT22;21562;49.476;6.086;2023-08-07T08:47:51;15.70;99.90
35445;DHT22;21562;49.476;6.086;2023-08-07T08:50:21;15.80;99.90
35445;DHT22;21562;49.476;6.086;2023-08-07T08:52:46;15.90;99.90
35445;DHT22;21562;49.476;6.086;2023-08-07T08:55:13;16.10;99.90
35445;DHT22;21562;49.476;6.086;2023-08-07T08:57:39;16.00;99.90
35445;DHT22;21562;49.476;6.086;2023-08-07T09:00:06;15.60;99.90
35445;DHT22;21562;49.476;6.086;2023-08-07T09:02:49;15.70;99.90
35445;DHT22;21562;49.476;6.086;2023-08-07T09:05:17;16.10;99.90
35445;DHT22;21562;49.476;6.086;2023-08-07T09:07:43;16.50;99.90
35445;DHT22;21562;49.476;6.086;2023-08-07T09:10:12;16.60;99.90
35445;DHT22;21562;49.476;6.086;2023-08-07T09:12:53;16.20;99.90
35445;DHT22;21562;49.476;6.086;2023-08-07T09:15:20;16.20;99.90
35445;DHT22;21562;49.476;6.086;2023-08-07T09:17:47;16.10;99.90
35445;DHT22;21562;49.476;6.086;2023-08-07T09:20:14;16.20;99.90
35445;DHT22;21562;49.476;6.086;2023-08-07T09:22:41;16.40;99.90
35445;DHT22;21562;49.476;6.086;2023-08-07T09:25:09;16.60;99.90
35445;DHT22;21562;49.476;6.086;2023-08-07T09:27:37;16.40;99.90
35445;DHT22;21562;49.476;6.086;2023-08-07T09:30:05;16.50;99.90
35445;DHT22;21562;49.476;6.086;2023-08-07T09:32:32;16.40;99.90
35445;DHT22;21562;49.476;6.086;2023-08-07T09:34:57;16.40;99.90
35445;DHT22;21562;49.476;6.086;2023-08-07T09:37:23;16.40;99.90
35445;DHT22;21562;49.476;6.086;2023-08-07T09:39:49;16.20;99.90
35445;DHT22;21562;49.476;6.086;2023-08-07T09:42:15;16.40;99.90
35445;DHT22;21562;49.476;6.086;2023-08-07T09:44:42;16.60;99.90
35445;DHT22;21562;49.476;6.086;2023-08-07T09:47:12;16.70;99.90
35445;DHT22;21562;49.476;6.086;2023-08-07T09:49:39;16.50;99.90
35445;DHT22;21562;49.476;6.086;2023-08-07T09:52:06;16.60;99.90
35445;DHT22;21562;49.476;6.086;2023-08-07T09:54:33;16.80;99.90
35445;DHT22;21562;49.476;6.086;2023-08-07T09:57:01;17.00;99.90
35445;DHT22;21562;49.476;6.086;2023-08-07T09:59:27;17.30;99.90
35445;DHT22;21562;49.476;6.086;2023-08-07T10:01:54;17.30;99.90
35445;DHT22;21562;49.476;6.086;2023-08-07T10:04:21;17.30;99.90
35445;DHT22;21562;49.476;6.086;2023-08-07T10:06:47;17.40;99.90
35445;DHT22;21562;49.476;6.086;2023-08-07T10:09:13;17.50;99.90
35445;DHT22;21562;49.476;6.086;2023-08-07T10:11:40;17.60;99.90
35445;DHT22;21562;49.476;6.086;2023-08-07T10:14:06;17.70;99.90
35445;DHT22;21562;49.476;6.086;2023-08-07T10:16:33;17.90;99.90
35445;DHT22;21562;49.476;6.086;2023-08-07T10:19:05;17.80;99.90
35445;DHT22;21562;49.476;6.086;2023-08-07T10:21:30;17.80;99.90
35445;DHT22;21562;49.476;6.086;2023-08-07T10:23:57;17.80;99.90
35445;DHT22;21562;49.476;6.086;2023-08-07T10:26:25;17.70;99.90
35445;DHT22;21562;49.476;6.086;2023-08-07T10:28:51;18.10;99.90
35445;DHT22;21562;49.476;6.086;2023-08-07T10:31:20;18.00;99.90
35445;DHT22;21562;49.476;6.086;2023-08-07T10:33:47;17.80;99.90
35445;DHT22;21562;49.476;6.086;2023-08-07T10:36:16;17.70;99.90
35445;DHT22;21562;49.476;6.086;2023-08-07T10:38:42;17.80;99.90
35445;DHT22;21562;49.476;6.086;2023-08-07T10:41:14;17.50;99.90
35445;DHT22;21562;49.476;6.086;2023-08-07T10:46:11;18.00;99.90
35445;DHT22;21562;49.476;6.086;2023-08-07T10:48:41;18.10;99.90
35445;DHT22;21562;49.476;6.086;2023-08-07T10:51:07;18.20;99.90
35445;DHT22;21562;49.476;6.086;2023-08-07T10:53:45;18.50;99.90
35445;DHT22;21562;49.476;6.086;2023-08-07T10:56:29;18.40;99.90
35445;DHT22;21562;49.476;6.086;2023-08-07T10:58:55;18.80;99.90
35445;DHT22;21562;49.476;6.086;2023-08-07T11:03:54;18.90;99.90
35445;DHT22;21562;49.476;6.086;2023-08-07T11:06:29;19.30;99.90
35445;DHT22;21562;49.476;6.086;2023-08-07T11:08:57;19.10;99.90
35445;DHT22;21562;49.476;6.086;2023-08-07T11:11:23;18.90;99.90
35445;DHT22;21562;49.476;6.086;2023-08-07T11:13:49;19.00;99.90
35445;DHT22;21562;49.476;6.086;2023-08-07T11:16:16;18.80;99.90
35445;DHT22;21562;49.476;6.086;2023-08-07T11:18:42;19.20;99.90
35445;DHT22;21562;49.476;6.086;2023-08-07T11:21:09;19.20;99.90
35445;DHT22;21562;49.476;6.086;2023-08-07T11:23:36;18.80;99.90
35445;DHT22;21562;49.476;6.086;2023-08-07T11:26:02;18.90;99.90
35445;DHT22;21562;49.476;6.086;2023-08-07T11:28:31;19.10;99.90
35445;DHT22;21562;49.476;6.086;2023-08-07T11:30:57;19.60;99.90
35445;DHT22;21562;49.476;6.086;2023-08-07T11:33:27;19.60;99.90
35445;DHT22;21562;49.476;6.086;2023-08-07T11:35:53;19.30;99.90
35445;DHT22;21562;49.476;6.086;2023-08-07T11:38:40;19.60;99.90
35445;DHT22;21562;49.476;6.086;2023-08-07T11:41:07;19.20;99.90
35445;DHT22;21562;49.476;6.086;2023-08-07T11:43:34;19.30;99.90
35445;DHT22;21562;49.476;6.086;2023-08-07T11:46:05;19.80;99.90
35445;DHT22;21562;49.476;6.086;2023-08-07T11:48:32;20.00;99.90
35445;DHT22;21562;49.476;6.086;2023-08-07T11:50:59;19.40;99.90
35445;DHT22;21562;49.476;6.086;2023-08-07T11:53:27;19.10;99.90
35445;DHT22;21562;49.476;6.086;2023-08-07T11:58:22;20.10;99.90
35445;DHT22;21562;49.476;6.086;2023-08-07T12:00:49;20.20;99.90
35445;DHT22;21562;49.476;6.086;2023-08-07T12:05:52;19.20;99.90
35445;DHT22;21562;49.476;6.086;2023-08-07T12:08:18;19.00;99.90
35445;DHT22;21562;49.476;6.086;2023-08-07T12:10:44;18.90;99.90
35445;DHT22;21562;49.476;6.086;2023-08-07T12:13:12;19.00;99.90
35445;DHT22;21562;49.476;6.086;2023-08-07T12:15:38;19.00;99.90
35445;DHT22;21562;49.476;6.086;2023-08-07T12:18:07;19.10;99.90
35445;DHT22;21562;49.476;6.086;2023-08-07T12:20:33;18.90;99.90
35445;DHT22;21562;49.476;6.086;2023-08-07T12:22:58;19.00;99.90
35445;DHT22;21562;49.476;6.086;2023-08-07T12:25:24;19.20;99.90
35445;DHT22;21562;49.476;6.086;2023-08-07T12:27:50;19.00;99.90
35445;DHT22;21562;49.476;6.086;2023-08-07T12:30:15;19.30;99.90
35445;DHT22;21562;49.476;6.086;2023-08-07T12:32:41;19.00;99.90
35445;DHT22;21562;49.476;6.086;2023-08-07T12:35:07;19.10;99.90
35445;DHT22;21562;49.476;6.086;2023-08-07T12:37:34;19.60;99.90
35445;DHT22;21562;49.476;6.086;2023-08-07T12:40:00;20.20;99.90
35445;DHT22;21562;49.476;6.086;2023-08-07T12:42:25;20.00;99.90
35445;DHT22;21562;49.476;6.086;2023-08-07T12:44:51;19.90;99.90
35445;DHT22;21562;49.476;6.086;2023-08-07T12:47:16;19.50;99.90
35445;DHT22;21562;49.476;6.086;2023-08-07T12:49:42;19.20;99.90
35445;DHT22;21562;49.476;6.086;2023-08-07T12:52:10;19.20;99.90
35445;DHT22;21562;49.476;6.086;2023-08-07T12:54:36;19.40;99.90
35445;DHT22;21562;49.476;6.086;2023-08-07T12:57:01;19.00;99.90
35445;DHT22;21562;49.476;6.086;2023-08-07T12:59:27;18.80;99.90
35445;DHT22;21562;49.476;6.086;2023-08-07T13:01:52;18.80;99.90
35445;DHT22;21562;49.476;6.086;2023-08-07T13:04:18;18.80;99.90
35445;DHT22;21562;49.476;6.086;2023-08-07T13:06:44;19.20;99.90
35445;DHT22;21562;49.476;6.086;2023-08-07T13:09:09;19.30;99.90
35445;DHT22;21562;49.476;6.086;2023-08-07T13:11:35;19.20;99.90
35445;DHT22;21562;49.476;6.086;2023-08-07T13:14:00;19.70;99.90
35445;DHT22;21562;49.476;6.086;2023-08-07T13:16:26;19.60;99.90
35445;DHT22;21562;49.476;6.086;2023-08-07T13:18:52;19.40;99.90
35445;DHT22;21562;49.476;6.086;2023-08-07T13:21:17;19.20;99.90
35445;DHT22;21562;49.476;6.086;2023-08-07T13:23:43;19.60;99.90
35445;DHT22;21562;49.476;6.086;2023-08-07T13:26:09;19.70;99.90
35445;DHT22;21562;49.476;6.086;2023-08-07T13:28:34;19.60;99.90
35445;DHT22;21562;49.476;6.086;2023-08-07T13:31:00;19.50;99.90
35445;DHT22;21562;49.476;6.086;2023-08-07T13:33:26;19.60;99.90
35445;DHT22;21562;49.476;6.086;2023-08-07T13:35:51;19.50;99.90
35445;DHT22;21562;49.476;6.086;2023-08-07T13:38:17;18.90;99.90
35445;DHT22;21562;49.476;6.086;2023-08-07T13:40:53;19.20;99.90
35445;DHT22;21562;49.476;6.086;2023-08-07T13:46:26;20.10;99.90
35445;DHT22;21562;49.476;6.086;2023-08-07T13:48:51;20.00;99.90
35445;DHT22;21562;49.476;6.086;2023-08-07T13:51:17;20.40;99.90
35445;DHT22;21562;49.476;6.086;2023-08-07T13:53:43;20.50;99.90
35445;DHT22;21562;49.476;6.086;2023-08-07T13:56:09;20.50;99.90
35445;DHT22;21562;49.476;6.086;2023-08-07T13:58:41;20.40;99.90
35445;DHT22;21562;49.476;6.086;2023-08-07T14:01:08;20.40;99.90
35445;DHT22;21562;49.476;6.086;2023-08-07T14:03:34;20.60;99.90
35445;DHT22;21562;49.476;6.086;2023-08-07T14:06:00;20.60;99.90
35445;DHT22;21562;49.476;6.086;2023-08-07T14:08:26;20.90;99.90
35445;DHT22;21562;49.476;6.086;2023-08-07T14:10:52;20.40;99.90
35445;DHT22;21562;49.476;6.086;2023-08-07T14:13:17;20.30;99.90
35445;DHT22;21562;49.476;6.086;2023-08-07T14:15:43;20.10;99.90
35445;DHT22;21562;49.476;6.086;2023-08-07T14:18:09;20.10;99.90
35445;DHT22;21562;49.476;6.086;2023-08-07T14:20:36;20.20;99.90
35445;DHT22;21562;49.476;6.086;2023-08-07T14:23:01;20.00;99.90
35445;DHT22;21562;49.476;6.086;2023-08-07T14:25:27;19.80;99.90
35445;DHT22;21562;49.476;6.086;2023-08-07T14:27:53;20.10;99.90
35445;DHT22;21562;49.476;6.086;2023-08-07T14:30:19;20.50;99.90
35445;DHT22;21562;49.476;6.086;2023-08-07T14:32:45;20.60;99.90
35445;DHT22;21562;49.476;6.086;2023-08-07T14:35:12;20.60;99.90
35445;DHT22;21562;49.476;6.086;2023-08-07T14:37:39;20.50;99.90
35445;DHT22;21562;49.476;6.086;2023-08-07T14:40:05;20.30;99.90
35445;DHT22;21562;49.476;6.086;2023-08-07T14:42:32;20.20;99.90
35445;DHT22;21562;49.476;6.086;2023-08-07T14:44:57;19.90;99.90
35445;DHT22;21562;49.476;6.086;2023-08-07T14:47:23;20.00;99.90
35445;DHT22;21562;49.476;6.086;2023-08-07T14:49:49;20.30;99.90
35445;DHT22;21562;49.476;6.086;2023-08-07T14:52:15;20.70;99.90
35445;DHT22;21562;49.476;6.086;2023-08-07T14:54:40;20.70;99.90
35445;DHT22;21562;49.476;6.086;2023-08-07T14:57:06;20.90;99.90
35445;DHT22;21562;49.476;6.086;2023-08-07T14:59:31;21.10;99.90
35445;DHT22;21562;49.476;6.086;2023-08-07T15:01:57;21.10;99.90
35445;DHT22;21562;49.476;6.086;2023-08-07T15:04:23;21.20;99.90
35445;DHT22;21562;49.476;6.086;2023-08-07T15:06:49;20.90;99.90
35445;DHT22;21562;49.476;6.086;2023-08-07T15:09:16;20.90;99.90
35445;DHT22;21562;49.476;6.086;2023-08-07T15:11:46;20.90;99.90
35445;DHT22;21562;49.476;6.086;2023-08-07T15:14:12;21.10;99.90
35445;DHT22;21562;49.476;6.086;2023-08-07T15:16:38;20.50;99.90
35445;DHT22;21562;49.476;6.086;2023-08-07T15:19:04;20.60;99.90
35445;DHT22;21562;49.476;6.086;2023-08-07T15:21:30;20.70;99.90
35445;DHT22;21562;49.476;6.086;2023-08-07T15:23:56;20.50;99.90
35445;DHT22;21562;49.476;6.086;2023-08-07T15:26:21;20.60;99.90
35445;DHT22;21562;49.476;6.086;2023-08-07T15:28:47;21.10;99.90
35445;DHT22;21562;49.476;6.086;2023-08-07T15:31:13;21.40;99.90
35445;DHT22;21562;49.476;6.086;2023-08-07T15:33:38;21.40;99.90
35445;DHT22;21562;49.476;6.086;2023-08-07T15:36:04;21.50;99.90
35445;DHT22;21562;49.476;6.086;2023-08-07T15:38:30;21.30;99.90
35445;DHT22;21562;49.476;6.086;2023-08-07T15:40:56;21.00;99.90
35445;DHT22;21562;49.476;6.086;2023-08-07T15:43:21;21.00;99.90
35445;DHT22;21562;49.476;6.086;2023-08-07T15:45:50;21.20;99.90
35445;DHT22;21562;49.476;6.086;2023-08-07T15:48:16;21.20;99.90
35445;DHT22;21562;49.476;6.086;2023-08-07T15:50:42;21.00;99.90
35445;DHT22;21562;49.476;6.086;2023-08-07T15:53:10;20.90;99.90
35445;DHT22;21562;49.476;6.086;2023-08-07T15:55:36;21.00;99.90
35445;DHT22;21562;49.476;6.086;2023-08-07T15:58:04;21.10;99.90
35445;DHT22;21562;49.476;6.086;2023-08-07T16:00:30;20.90;99.90
35445;DHT22;21562;49.476;6.086;2023-08-07T16:03:02;20.70;99.90
35445;DHT22;21562;49.476;6.086;2023-08-07T16:05:30;20.90;99.90
35445;DHT22;21562;49.476;6.086;2023-08-07T16:07:57;21.00;99.90
35445;DHT22;21562;49.476;6.086;2023-08-07T16:10:22;21.00;99.90
35445;DHT22;21562;49.476;6.086;2023-08-07T16:12:50;20.80;99.90
35445;DHT22;21562;49.476;6.086;2023-08-07T16:15:16;21.00;99.90
35445;DHT22;21562;49.476;6.086;2023-08-07T16:17:42;20.90;99.90
35445;DHT22;21562;49.476;6.086;2023-08-07T16:20:08;21.20;99.90
35445;DHT22;21562;49.476;6.086;2023-08-07T16:22:34;21.20;99.90
35445;DHT22;21562;49.476;6.086;2023-08-07T16:25:00;20.80;99.90
35445;DHT22;21562;49.476;6.086;2023-08-07T16:27:26;20.70;99.90
35445;DHT22;21562;49.476;6.086;2023-08-07T16:29:52;20.90;99.90
35445;DHT22;21562;49.476;6.086;2023-08-07T16:32:18;21.10;99.90
35445;DHT22;21562;49.476;6.086;2023-08-07T16:34:44;21.10;99.90
35445;DHT22;21562;49.476;6.086;2023-08-07T16:37:09;21.40;99.90
35445;DHT22;21562;49.476;6.086;2023-08-07T16:39:35;21.50;99.90
35445;DHT22;21562;49.476;6.086;2023-08-07T16:42:00;21.30;99.90
35445;DHT22;21562;49.476;6.086;2023-08-07T16:44:26;21.00;99.90
35445;DHT22;21562;49.476;6.086;2023-08-07T16:46:52;20.60;99.90
35445;DHT22;21562;49.476;6.086;2023-08-07T16:49:17;20.90;99.90
35445;DHT22;21562;49.476;6.086;2023-08-07T16:51:45;20.60;99.90
35445;DHT22;21562;49.476;6.086;2023-08-07T16:54:10;20.40;99.90
35445;DHT22;21562;49.476;6.086;2023-08-07T16:56:36;20.40;99.90
35445;DHT22;21562;49.476;6.086;2023-08-07T16:59:02;20.80;99.90
35445;DHT22;21562;49.476;6.086;2023-08-07T17:01:27;20.70;99.90
35445;DHT22;21562;49.476;6.086;2023-08-07T17:03:53;20.80;99.90
35445;DHT22;21562;49.476;6.086;2023-08-07T17:06:19;20.70;99.90
35445;DHT22;21562;49.476;6.086;2023-08-07T17:08:44;20.70;99.90
35445;DHT22;21562;49.476;6.086;2023-08-07T17:11:14;20.70;99.90
35445;DHT22;21562;49.476;6.086;2023-08-07T17:13:40;20.60;99.90
35445;DHT22;21562;49.476;6.086;2023-08-07T17:16:05;20.50;99.90
35445;DHT22;21562;49.476;6.086;2023-08-07T17:18:31;20.20;99.90
35445;DHT22;21562;49.476;6.086;2023-08-07T17:20:56;20.60;99.90
35445;DHT22;21562;49.476;6.086;2023-08-07T17:23:22;20.60;99.90
35445;DHT22;21562;49.476;6.086;2023-08-07T17:25:48;20.80;99.90
35445;DHT22;21562;49.476;6.086;2023-08-07T17:28:14;20.80;99.90
35445;DHT22;21562;49.476;6.086;2023-08-07T17:30:39;20.70;99.90
35445;DHT22;21562;49.476;6.086;2023-08-07T17:33:05;20.70;99.90
35445;DHT22;21562;49.476;6.086;2023-08-07T17:35:31;20.90;99.90
35445;DHT22;21562;49.476;6.086;2023-08-07T17:37:56;21.10;99.90
35445;DHT22;21562;49.476;6.086;2023-08-07T17:40:23;21.10;99.90
35445;DHT22;21562;49.476;6.086;2023-08-07T17:42:49;21.30;99.90
35445;DHT22;21562;49.476;6.086;2023-08-07T17:45:15;21.70;99.90
35445;DHT22;21562;49.476;6.086;2023-08-07T17:47:40;21.30;99.90
35445;DHT22;21562;49.476;6.086;2023-08-07T17:50:06;20.90;99.90
35445;DHT22;21562;49.476;6.086;2023-08-07T17:52:36;20.30;99.90
35445;DHT22;21562;49.476;6.086;2023-08-07T17:55:01;20.00;99.90
35445;DHT22;21562;49.476;6.086;2023-08-07T17:57:29;19.90;99.90
35445;DHT22;21562;49.476;6.086;2023-08-07T17:59:54;20.00;99.90
35445;DHT22;21562;49.476;6.086;2023-08-07T18:02:20;20.00;99.90
35445;DHT22;21562;49.476;6.086;2023-08-07T18:04:46;20.00;99.90
35445;DHT22;21562;49.476;6.086;2023-08-07T18:07:11;20.20;99.90
35445;DHT22;21562;49.476;6.086;2023-08-07T18:09:37;20.20;99.90
35445;DHT22;21562;49.476;6.086;2023-08-07T18:12:03;20.40;99.90
35445;DHT22;21562;49.476;6.086;2023-08-07T18:14:29;20.30;99.90
35445;DHT22;21562;49.476;6.086;2023-08-07T18:16:54;20.30;99.90
35445;DHT22;21562;49.476;6.086;2023-08-07T18:19:20;20.00;99.90
35445;DHT22;21562;49.476;6.086;2023-08-07T18:21:46;19.80;99.90
35445;DHT22;21562;49.476;6.086;2023-08-07T18:24:12;19.80;99.90
35445;DHT22;21562;49.476;6.086;2023-08-07T18:26:37;19.60;99.90
35445;DHT22;21562;49.476;6.086;2023-08-07T18:29:03;19.60;99.90
35445;DHT22;21562;49.476;6.086;2023-08-07T18:31:29;19.60;99.90
35445;DHT22;21562;49.476;6.086;2023-08-07T18:33:56;19.70;99.90
35445;DHT22;21562;49.476;6.086;2023-08-07T18:36:22;19.70;99.90
35445;DHT22;21562;49.476;6.086;2023-08-07T18:38:48;19.60;99.90
35445;DHT22;21562;49.476;6.086;2023-08-07T18:41:15;19.60;99.90
35445;DHT22;21562;49.476;6.086;2023-08-07T18:43:41;19.50;99.90
35445;DHT22;21562;49.476;6.086;2023-08-07T18:46:06;19.50;99.90
35445;DHT22;21562;49.476;6.086;2023-08-07T18:48:32;19.40;99.90
35445;DHT22;21562;49.476;6.086;2023-08-07T18:50:58;19.50;99.90
35445;DHT22;21562;49.476;6.086;2023-08-07T18:53:23;19.50;99.90
35445;DHT22;21562;49.476;6.086;2023-08-07T18:55:49;19.20;99.90
35445;DHT22;21562;49.476;6.086;2023-08-07T18:58:14;19.00;99.90
35445;DHT22;21562;49.476;6.086;2023-08-07T19:00:40;18.90;99.90
35445;DHT22;21562;49.476;6.086;2023-08-07T19:03:06;19.00;99.90
35445;DHT22;21562;49.476;6.086;2023-08-07T19:05:31;19.20;99.90
35445;DHT22;21562;49.476;6.086;2023-08-07T19:07:57;19.40;99.90
35445;DHT22;21562;49.476;6.086;2023-08-07T19:10:22;19.30;99.90
35445;DHT22;21562;49.476;6.086;2023-08-07T19:12:48;19.10;99.90
35445;DHT22;21562;49.476;6.086;2023-08-07T19:15:14;19.00;99.90
35445;DHT22;21562;49.476;6.086;2023-08-07T19:17:41;18.90;99.90
35445;DHT22;21562;49.476;6.086;2023-08-07T19:20:07;19.00;99.90
35445;DHT22;21562;49.476;6.086;2023-08-07T19:22:33;18.90;99.90
35445;DHT22;21562;49.476;6.086;2023-08-07T19:24:59;18.90;99.90
35445;DHT22;21562;49.476;6.086;2023-08-07T19:27:25;18.80;99.90
35445;DHT22;21562;49.476;6.086;2023-08-07T19:29:50;18.80;99.90
35445;DHT22;21562;49.476;6.086;2023-08-07T19:32:18;18.60;99.90
35445;DHT22;21562;49.476;6.086;2023-08-07T19:34:44;18.60;99.90
35445;DHT22;21562;49.476;6.086;2023-08-07T19:37:10;18.70;99.90
35445;DHT22;21562;49.476;6.086;2023-08-07T19:39:35;18.70;99.90
35445;DHT22;21562;49.476;6.086;2023-08-07T19:42:01;18.60;99.90
35445;DHT22;21562;49.476;6.086;2023-08-07T19:44:27;18.50;99.90
35445;DHT22;21562;49.476;6.086;2023-08-07T19:46:52;18.40;99.90
35445;DHT22;21562;49.476;6.086;2023-08-07T19:49:18;18.40;99.90
35445;DHT22;21562;49.476;6.086;2023-08-07T19:51:44;18.30;99.90
35445;DHT22;21562;49.476;6.086;2023-08-07T19:54:09;18.00;99.90
35445;DHT22;21562;49.476;6.086;2023-08-07T19:56:35;18.00;99.90
35445;DHT22;21562;49.476;6.086;2023-08-07T19:59:01;17.90;99.90
35445;DHT22;21562;49.476;6.086;2023-08-07T20:01:30;17.90;99.90
35445;DHT22;21562;49.476;6.086;2023-08-07T20:03:55;18.00;99.90
35445;DHT22;21562;49.476;6.086;2023-08-07T20:06:21;17.80;99.90
35445;DHT22;21562;49.476;6.086;2023-08-07T20:08:47;17.60;99.90
35445;DHT22;21562;49.476;6.086;2023-08-07T20:11:12;17.40;99.90
35445;DHT22;21562;49.476;6.086;2023-08-07T20:13:38;17.50;99.90
35445;DHT22;21562;49.476;6.086;2023-08-07T20:16:04;17.40;99.90
35445;DHT22;21562;49.476;6.086;2023-08-07T20:18:31;17.50;99.90
35445;DHT22;21562;49.476;6.086;2023-08-07T20:20:57;17.50;99.90
35445;DHT22;21562;49.476;6.086;2023-08-07T20:23:23;17.50;99.90
35445;DHT22;21562;49.476;6.086;2023-08-07T20:25:50;17.50;99.90
35445;DHT22;21562;49.476;6.086;2023-08-07T20:28:15;17.30;99.90
35445;DHT22;21562;49.476;6.086;2023-08-07T20:30:42;17.00;99.90
35445;DHT22;21562;49.476;6.086;2023-08-07T20:33:07;17.00;99.90
35445;DHT22;21562;49.476;6.086;2023-08-07T20:35:33;17.10;99.90
35445;DHT22;21562;49.476;6.086;2023-08-07T20:37:58;17.10;99.90
35445;DHT22;21562;49.476;6.086;2023-08-07T20:40:24;17.10;99.90
35445;DHT22;21562;49.476;6.086;2023-08-07T20:42:50;17.10;99.90
35445;DHT22;21562;49.476;6.086;2023-08-07T20:45:16;17.10;99.90
35445;DHT22;21562;49.476;6.086;2023-08-07T20:47:42;16.80;99.90
35445;DHT22;21562;49.476;6.086;2023-08-07T20:50:08;16.50;99.90
35445;DHT22;21562;49.476;6.086;2023-08-07T20:52:35;16.40;99.90
35445;DHT22;21562;49.476;6.086;2023-08-07T20:55:00;16.60;99.90
35445;DHT22;21562;49.476;6.086;2023-08-07T20:57:26;16.70;99.90
35445;DHT22;21562;49.476;6.086;2023-08-07T20:59:52;16.80;99.90
35445;DHT22;21562;49.476;6.086;2023-08-07T21:02:18;16.80;99.90
35445;DHT22;21562;49.476;6.086;2023-08-07T21:04:44;16.90;99.90
35445;DHT22;21562;49.476;6.086;2023-08-07T21:07:09;16.90;99.90
35445;DHT22;21562;49.476;6.086;2023-08-07T21:09:35;16.90;99.90
35445;DHT22;21562;49.476;6.086;2023-08-07T21:12:01;17.00;99.90
35445;DHT22;21562;49.476;6.086;2023-08-07T21:14:27;16.90;99.90
35445;DHT22;21562;49.476;6.086;2023-08-07T21:16:53;16.80;99.90
35445;DHT22;21562;49.476;6.086;2023-08-07T21:19:18;16.70;99.90
35445;DHT22;21562;49.476;6.086;2023-08-07T21:21:44;16.60;99.90
35445;DHT22;21562;49.476;6.086;2023-08-07T21:24:10;16.60;99.90